Time;durP1;ratioP1;P1;durP2;ratioP2;P2;SDS_P1;SDS_P2;PMS_P1;PMS_P2;Temp;Humidity;BMP_temperature;BMP_pressure;BME280_temperature;BME280_humidity;BME280_pressure;Samples;Min_cycle;Max_cycle;Signal;HPM_P1;HPM_P2
2023/02/12 00:02:26;;;;;;;12.90;10.50;;;;;;;-128.00;-1.00;-1.00;100882;1254;1003977;-64
2023/02/12 00:04:53;;;;;;;12.70;10.60;;;;;;;-128.00;-1.00;-1.00;97018;1264;1165681;-64
2023/02/12 00:12:33;;;;;;;12.70;10.60;;;;;;;-128.00;-1.00;-1.00;3741;1276;441023721;-65
2023/02/12 00:19:13;;;;;;;12.70;10.60;;;;;;;-128.00;-1.00;-1.00;2;390261765;390261765;-64
2023/02/12 00:29:02;;;;;;;12.70;10.60;;;;;;;-128.00;-1.00;-1.00;2;579375290;579375290;-64
2023/02/12 00:38:15;;;;;;;12.70;10.60;;;;;;;-128.00;-1.00;-1.00;2;543356649;543356649;-64
2023/02/12 00:48:22;;;;;;;12.70;10.60;;;;;;;-128.00;-1.00;-1.00;2;597390918;597390918;-63
2023/02/12 00:55:56;;;;;;;12.70;10.60;;;;;;;-128.00;-1.00;-1.00;2;444286893;444286893;-64
2023/02/12 01:02:37;;;;;;;12.70;10.60;;;;;;;-128.00;-1.00;-1.00;2;390249199;390249199;-64
2023/02/12 01:12:28;;;;;;;12.70;10.60;;;;;;;-128.00;-1.00;-1.00;2;579386161;579386161;-63
2023/02/12 01:21:42;;;;;;;12.70;10.60;;;;;;;-128.00;-1.00;-1.00;2;543358095;543358095;-64
2023/02/12 01:31:49;;;;;;;12.70;10.60;;;;;;;-128.00;-1.00;-1.00;2;597388713;597388713;-63
2023/02/12 01:39:23;;;;;;;12.70;10.60;;;;;;;-128.00;-1.00;-1.00;2;444287019;444287019;-63
2023/02/12 01:46:04;;;;;;;12.70;10.60;;;;;;;-128.00;-1.00;-1.00;2;390262650;390262650;-66
2023/02/12 01:55:54;;;;;;;12.70;10.60;;;;;;;-128.00;-1.00;-1.00;2;579380313;579380313;-64
2023/02/12 02:05:08;;;;;;;12.70;10.60;;;;;;;-128.00;-1.00;-1.00;2;543358034;543358034;-62
2023/02/12 02:15:18;;;;;;;12.70;10.60;;;;;;;-128.00;-1.00;-1.00;2;597396004;597396004;-64
2023/02/12 02:22:57;;;;;;;12.70;10.60;;;;;;;-128.00;-1.00;-1.00;2;444296743;444296743;-64
2023/02/12 02:29:47;;;;;;;12.70;10.60;;;;;;;-128.00;-1.00;-1.00;2;390265774;390265774;-64
2023/02/12 02:39:37;;;;;;;12.70;10.60;;;;;;;-128.00;-1.00;-1.00;2;579382417;579382417;-64
2023/02/12 02:48:55;;;;;;;12.70;10.60;;;;;;;-128.00;-1.00;-1.00;2;543360815;543360815;-64
2023/02/12 02:59:04;;;;;;;12.70;10.60;;;;;;;-128.00;-1.00;-1.00;2;597391922;597391922;-64
2023/02/12 03:06:48;;;;;;;12.70;10.60;;;;;;;-128.00;-1.00;-1.00;2;444301625;444301625;-64
2023/02/12 03:13:46;;;;;;;12.70;10.60;;;;;;;-128.00;-1.00;-1.00;2;390106239;390106239;-65
2023/02/12 03:23:46;;;;;;;12.70;10.60;;;;;;;-128.00;-1.00;-1.00;2;583885705;583885705;-65
2023/02/12 03:33:03;;;;;;;12.70;10.60;;;;;;;-128.00;-1.00;-1.00;2;543369853;543369853;-65
2023/02/12 03:43:14;;;;;;;12.70;10.60;;;;;;;-128.00;-1.00;-1.00;2;597387632;597387632;-65
2023/02/12 03:50:52;;;;;;;12.70;10.60;;;;;;;-128.00;-1.00;-1.00;2;444298471;444298471;-65
2023/02/12 03:57:34;;;;;;;12.70;10.60;;;;;;;-128.00;-1.00;-1.00;2;390264062;390264062;-65
2023/02/12 04:07:22;;;;;;;12.70;10.60;;;;;;;-128.00;-1.00;-1.00;2;579391476;579391476;-66
2023/02/12 04:16:51;;;;;;;12.70;10.60;;;;;;;-128.00;-1.00;-1.00;2;543357650;543357650;-65
2023/02/12 04:27:02;;;;;;;12.70;10.60;;;;;;;-128.00;-1.00;-1.00;2;597245074;597245074;-73
2023/02/12 04:34:52;;;;;;;12.70;10.60;;;;;;;-128.00;-1.00;-1.00;2;444295825;444295825;-66
2023/02/12 04:41:31;;;;;;;12.70;10.60;;;;;;;-128.00;-1.00;-1.00;2;389450221;389450221;-68
2023/02/12 04:50:24;;;;;;;12.70;10.60;;;;;;;-128.00;-1.00;-1.00;2;525513361;525513361;-67
2023/02/12 04:55:35;;;;;;;12.70;10.60;;;;;;;-128.00;-1.00;-1.00;2;306475359;306475359;-68
2023/02/12 04:58:12;;;;;;;12.70;10.60;;;;;;;-128.00;-1.00;-1.00;2420;1275;138189696;-67
2023/02/12 05:00:39;;;;;;;0.70;0.40;;;;;;;-128.00;-1.00;-1.00;64499;1272;11759618;-65
2023/02/12 05:03:07;;;;;;;1.50;0.60;;;;;;;-128.00;-1.00;-1.00;92111;1272;1839808;-70
2023/02/12 05:05:34;;;;;;;2.50;0.80;;;;;;;-128.00;-1.00;-1.00;90956;1264;1316413;-69
2023/02/12 05:08:02;;;;;;;0.50;0.40;;;;;;;-128.00;-1.00;-1.00;90573;1260;1666009;-70
2023/02/12 05:10:31;;;;;;;1.20;0.70;;;;;;;-128.00;-1.00;-1.00;90821;1272;1643831;-74
2023/02/12 05:12:58;;;;;;;2.00;0.80;;;;;;;-128.00;-1.00;-1.00;95369;1267;1419724;-73
2023/02/12 05:15:25;;;;;;;1.30;0.70;;;;;;;-128.00;-1.00;-1.00;95214;1270;1268256;-73
2023/02/12 05:19:10;;;;;;;1.80;0.80;;;;;;;;;;97117;1296;1495731;-71
2023/02/12 05:21:37;;;;;;;1.70;0.70;;;;;;;;;;104577;1266;115135;-73
2023/02/12 05:24:04;;;;;;;1.50;0.60;;;;;;;;;;104615;1257;65420;-73
2023/02/12 05:26:31;;;;;;;1.10;0.60;;;;;;;;;;104617;1257;64715;-71
2023/02/12 05:28:58;;;;;;;0.90;0.60;;;;;;;;;;104659;1258;67084;-71
2023/02/12 05:31:25;;;;;;;2.80;0.70;;;;;;;;;;104280;1258;151772;-73
2023/02/12 05:33:52;;;;;;;0.70;0.60;;;;;;;;;;103440;1267;176258;-71
2023/02/12 05:36:20;;;;;;;1.00;0.60;;;;;;;;;;102307;1270;278567;-66
2023/02/12 05:38:46;;;;;;;;;;;;;;;;;;100147;1267;398195;-63
2023/02/12 05:41:14;;;;;;;0.80;0.70;;;;;;;;;;100626;1273;350218;-64
2023/02/12 05:43:42;;;;;;;1.10;0.80;;;;;;;;;;101262;1264;289261;-65
2023/02/12 05:46:09;;;;;;;1.10;0.80;;;;;;;;;;101810;1260;290808;-64
2023/02/12 05:48:36;;;;;;;2.80;1.00;;;;;;;;;;102105;1267;302101;-65
2023/02/12 05:51:02;;;;;;;0.70;0.60;;;;;;;;;;103752;1256;218895;-64
2023/02/12 05:53:29;;;;;;;1.80;0.70;;;;;;;;;;104469;1256;104483;-64
2023/02/12 05:56:16;;;;;;;1.80;0.90;;;;;;;;;;104238;1254;103792;-63
2023/02/12 05:58:43;;;;;;;0.80;0.60;;;;;;;;;;103323;1261;172818;-60
2023/02/12 06:01:14;;;;;;;2.20;0.90;;;;;;;;;;103573;1252;154741;-60
2023/02/12 06:03:41;;;;;;;1.50;0.80;;;;;;;;;;103492;1267;162739;-63
2023/02/12 06:06:09;;;;;;;1.40;0.80;;;;;;;;;;102915;1267;235269;-65
2023/02/12 06:08:36;;;;;;;1.00;0.90;;;;;;;;;;103024;1261;200000;-65
2023/02/12 06:11:06;;;;;;;0.60;0.50;;;;;;;;;;102844;1267;240432;-67
2023/02/12 06:13:33;;;;;;;1.50;0.90;;;;;;;;;;103905;1267;132340;-67
2023/02/12 06:16:01;;;;;;;1.10;0.80;;;;;;;;;;103819;1268;125709;-68
2023/02/12 06:18:28;;;;;;;1.70;0.90;;;;;;;;;;104360;1251;167572;-63
2023/02/12 06:20:55;;;;;;;1.60;0.80;;;;;;;;;;104732;1253;116763;-63
2023/02/12 06:23:22;;;;;;;0.80;0.70;;;;;;;;;;104852;1254;215174;-64
2023/02/12 06:25:54;;;;;;;1.10;0.70;;;;;;;;;;104304;1261;113143;-64
2023/02/12 06:28:22;;;;;;;1.40;0.70;;;;;;;;;;104433;1259;80416;-65
2023/02/12 06:30:49;;;;;;;0.60;0.60;;;;;;;;;;104448;1257;79825;-66
2023/02/12 06:33:16;;;;;;;2.70;0.80;;;;;;;;;;104535;1267;78184;-65
2023/02/12 06:35:43;;;;;;;1.80;0.80;;;;;;;;;;104368;1257;86456;-64
2023/02/12 06:38:10;;;;;;;1.50;1.10;;;;;;;;;;104440;1262;96251;-64
2023/02/12 06:40:37;;;;;;;1.30;0.60;;;;;;;;;;104363;1262;84904;-67
2023/02/12 06:43:05;;;;;;;1.50;1.00;;;;;;;;;;104475;1256;80149;-65
2023/02/12 06:45:32;;;;;;;1.40;0.90;;;;;;;;;;104514;1257;76914;-66
2023/02/12 06:47:59;;;;;;;1.20;0.50;;;;;;;;;;104731;1253;73637;-66
2023/02/12 06:50:26;;;;;;;1.50;0.90;;;;;;;;;;104657;1257;80581;-65
2023/02/12 06:52:53;;;;;;;1.80;1.10;;;;;;;;;;104730;1256;76691;-65
2023/02/12 06:55:20;;;;;;;0.50;0.40;;;;;;;;;;104423;1270;76961;-64
2023/02/12 06:57:47;;;;;;;1.00;0.60;;;;;;;;;;104348;1257;85029;-64
2023/02/12 07:00:14;;;;;;;1.40;0.80;;;;;;;;;;104385;1258;98809;-65
2023/02/12 07:02:41;;;;;;;1.40;0.80;;;;;;;;;;104742;1260;103795;-66
2023/02/12 07:05:07;;;;;;;1.20;0.80;;;;;;;;;;105270;1251;96888;-67
2023/02/12 07:07:35;;;;;;;2.70;0.90;;;;;;;;;;105013;1255;76558;-65
2023/02/12 07:10:02;;;;;;;3.40;0.90;;;;;;;;;;105099;1264;82088;-63
2023/02/12 07:12:32;;;;;;;1.20;1.00;;;;;;;;;;104981;1251;148271;-64
2023/02/12 07:14:59;;;;;;;1.50;0.80;;;;;;;;;;105018;1253;107171;-65
2023/02/12 07:17:25;;;;;;;0.60;0.60;;;;;;;;;;105186;1248;86683;-65
2023/02/12 07:19:52;;;;;;;1.60;1.10;;;;;;;;;;105011;1247;124934;-65
2023/02/12 07:22:21;;;;;;;1.90;0.90;;;;;;;;;;105273;1248;84370;-65
2023/02/12 07:24:48;;;;;;;1.70;1.20;;;;;;;;;;105170;1251;87361;-65
2023/02/12 07:27:16;;;;;;;2.20;1.00;;;;;;;;;;105349;1251;96794;-65
2023/02/12 07:29:43;;;;;;;2.10;0.90;;;;;;;;;;104911;1257;144092;-63
2023/02/12 07:32:10;;;;;;;1.30;0.80;;;;;;;;;;104957;1251;105963;-64
2023/02/12 07:34:37;;;;;;;2.30;1.00;;;;;;;;;;104557;1252;161415;-66
2023/02/12 07:37:06;;;;;;;1.20;0.80;;;;;;;;;;104906;1256;106164;-65
2023/02/12 07:39:33;;;;;;;1.40;0.70;;;;;;;;;;105080;1263;96929;-67
2023/02/12 07:42:00;;;;;;;2.30;0.80;;;;;;;;;;105157;1251;97988;-65
2023/02/12 07:44:27;;;;;;;1.20;0.80;;;;;;;;;;105119;1264;93442;-65
2023/02/12 07:46:54;;;;;;;0.90;0.70;;;;;;;;;;104978;1254;90409;-63
2023/02/12 07:49:21;;;;;;;1.30;0.90;;;;;;;;;;105163;1247;78549;-66
2023/02/12 07:51:48;;;;;;;1.30;0.80;;;;;;;;;;105318;1251;77768;-65
2023/02/12 07:54:17;;;;;;;1.50;0.70;;;;;;;;;;105276;1253;72747;-65
2023/02/12 07:56:45;;;;;;;1.20;0.90;;;;;;;;;;105358;1251;79771;-67
2023/02/12 07:59:13;;;;;;;0.40;0.40;;;;;;;;;;105425;1253;82928;-66
2023/02/12 08:01:40;;;;;;;0.80;0.70;;;;;;;;;;105469;1250;69179;-70
2023/02/12 08:04:09;;;;;;;0.90;0.60;;;;;;;;;;105457;1257;71569;-67
2023/02/12 08:06:38;;;;;;;1.60;1.10;;;;;;;;;;105367;1263;71252;-70
2023/02/12 08:09:06;;;;;;;1.20;0.90;;;;;;;;;;105451;1251;69346;-72
2023/02/12 08:11:33;;;;;;;1.00;0.60;;;;;;;;;;105423;1251;77418;-72
2023/02/12 08:14:02;;;;;;;1.30;0.70;;;;;;;;;;105561;1247;70858;-73
2023/02/12 08:16:30;;;;;;;1.70;0.70;;;;;;;;;;105720;1250;71989;-67
2023/02/12 08:18:57;;;;;;;1.60;0.70;;;;;;;;;;105424;1253;71068;-66
2023/02/12 08:21:41;;;;;;;0.80;0.70;;;;;;;;;;106350;1248;77057;-66
2023/02/12 08:24:08;;;;;;;1.40;1.10;;;;;;;;;;105158;1250;76738;-65
2023/02/12 08:26:36;;;;;;;0.70;0.60;;;;;;;;;;105215;1253;72891;-66
2023/02/12 08:29:03;;;;;;;0.70;0.70;;;;;;;;;;105117;1254;70030;-65
2023/02/12 08:31:31;;;;;;;3.30;0.80;;;;;;;;;;105395;1254;70443;-67
2023/02/12 08:33:58;;;;;;;;;;;;;;;;;;105498;1253;69306;-67
2023/02/12 08:36:28;;;;;;;1.20;0.90;;;;;;;;;;105452;1252;71497;-67
2023/02/12 08:38:56;;;;;;;1.50;1.10;;;;;;;;;;106103;1253;67630;-67
2023/02/12 08:41:23;;;;;;;1.40;1.10;;;;;;;;;;105627;1257;67855;-66
2023/02/12 08:43:56;;;;;;;1.40;0.80;;;;;;;;;;105671;1251;70849;-67
2023/02/12 08:46:24;;;;;;;2.20;1.00;;;;;;;;;;105353;1254;68608;-66
2023/02/12 08:48:50;;;;;;;;;;;;;;;;;;105373;1248;69094;-64
2023/02/12 08:51:18;;;;;;;2.00;1.40;;;;;;;;;;105343;1250;67016;-63
2023/02/12 08:53:45;;;;;;;1.10;0.90;;;;;;;;;;105387;1250;65910;-65
2023/02/12 08:56:14;;;;;;;1.00;0.80;;;;;;;;;;105427;1259;65803;-66
2023/02/12 08:58:41;;;;;;;2.20;0.70;;;;;;;;;;105288;1251;66482;-64
2023/02/12 09:01:08;;;;;;;1.50;0.90;;;;;;;;;;105465;1247;66491;-65
2023/02/12 09:03:36;;;;;;;1.40;0.70;;;;;;;;;;105531;1247;66989;-67
2023/02/12 09:06:03;;;;;;;2.40;1.20;;;;;;;;;;105379;1252;65774;-62
2023/02/12 09:08:30;;;;;;;1.40;1.10;;;;;;;;;;105252;1254;65285;-61
2023/02/12 09:10:57;;;;;;;2.40;1.40;;;;;;;;;;105185;1253;66118;-65
2023/02/12 09:13:24;;;;;;;1.50;1.20;;;;;;;;;;105410;1250;65566;-64
2023/02/12 09:15:51;;;;;;;1.00;0.70;;;;;;;;;;105285;1254;65915;-64
2023/02/12 09:18:18;;;;;;;1.30;0.80;;;;;;;;;;105275;1255;66167;-66
2023/02/12 09:20:45;;;;;;;1.70;0.80;;;;;;;;;;105269;1247;65883;-66
2023/02/12 09:23:12;;;;;;;1.40;0.80;;;;;;;;;;105423;1248;66838;-64
2023/02/12 09:25:43;;;;;;;1.20;0.90;;;;;;;;;;105322;1261;72695;-64
2023/02/12 09:28:11;;;;;;;0.90;0.70;;;;;;;;;;105194;1253;68113;-64
2023/02/12 09:30:37;;;;;;;1.90;0.90;;;;;;;;;;105294;1253;68318;-63
2023/02/12 09:33:04;;;;;;;1.10;0.80;;;;;;;;;;105392;1248;68386;-63
2023/02/12 09:35:34;;;;;;;1.20;0.90;;;;;;;;;;105402;1250;66415;-66
2023/02/12 09:38:02;;;;;;;1.90;0.80;;;;;;;;;;105210;1251;66747;-63
2023/02/12 09:40:30;;;;;;;1.40;0.60;;;;;;;;;;105392;1254;66746;-63
2023/02/12 09:42:57;;;;;;;2.30;0.90;;;;;;;;;;104996;1254;68732;-63
2023/02/12 09:45:27;;;;;;;0.80;0.80;;;;;;;;;;105062;1253;68466;-63
2023/02/12 09:48:04;;;;;;;1.40;0.60;;;;;;;;;;105242;1253;68366;-63
2023/02/12 09:50:39;;;;;;;1.70;0.60;;;;;;;;;;105233;1250;70314;-65
2023/02/12 09:53:07;;;;;;;0.80;0.70;;;;;;;;;;105212;1254;67378;-65
2023/02/12 09:55:34;;;;;;;1.00;0.70;;;;;;;;;;105512;1248;70125;-64
2023/02/12 09:58:02;;;;;;;0.90;0.70;;;;;;;;;;105367;1249;68728;-64
2023/02/12 10:00:30;;;;;;;2.20;1.00;;;;;;;;;;105154;1247;66965;-61
2023/02/12 10:03:00;;;;;;;1.40;0.80;;;;;;;;;;105153;1253;68357;-67
2023/02/12 10:05:37;;;;;;;0.90;0.80;;;;;;;;;;105072;1253;67638;-66
2023/02/12 10:08:26;;;;;;;0.80;0.70;;;;;;;;;;104945;1255;67439;-62
2023/02/12 10:10:58;;;;;;;0.90;0.80;;;;;;;;;;105334;1247;67010;-64
2023/02/12 10:13:38;;;;;;;1.80;0.70;;;;;;;;;;105564;1250;66200;-64
2023/02/12 10:16:05;;;;;;;1.20;0.80;;;;;;;;;;105654;1250;67595;-64
2023/02/12 10:18:49;;;;;;;0.70;0.70;;;;;;;;;;105316;1250;65598;-65
2023/02/12 10:21:34;;;;;;;0.80;0.60;;;;;;;;;;105411;1248;65660;-65
2023/02/12 10:24:01;;;;;;;0.90;0.90;;;;;;;;;;105276;1254;66127;-65
2023/02/12 10:26:48;;;;;;;0.80;0.70;;;;;;;;;;105220;1247;66814;-64
2023/02/12 10:29:19;;;;;;;1.20;0.80;;;;;;;;;;105399;1253;67264;-65
2023/02/12 10:31:48;;;;;;;1.00;0.80;;;;;;;;;;105209;1253;65196;-63
2023/02/12 10:34:25;;;;;;;2.00;0.90;;;;;;;;;;104846;1247;65394;-61
2023/02/12 10:36:54;;;;;;;0.80;0.70;;;;;;;;;;105439;1253;65513;-63
2023/02/12 10:39:25;;;;;;;1.80;1.00;;;;;;;;;;105215;1251;65127;-61
2023/02/12 10:41:58;;;;;;;0.90;0.80;;;;;;;;;;105000;1254;65724;-67
2023/02/12 10:44:25;;;;;;;1.50;0.90;;;;;;;;;;105681;1248;65833;-65
2023/02/12 10:46:54;;;;;;;0.60;0.50;;;;;;;;;;105632;1252;65605;-63
2023/02/12 10:49:20;;;;;;;1.90;1.20;;;;;;;;;;105076;1250;64921;-61
2023/02/12 10:52:08;;;;;;;0.70;0.70;;;;;;;;;;105109;1264;65068;-63
2023/02/12 10:54:40;;;;;;;1.00;0.60;;;;;;;;;;105164;1254;65423;-67
2023/02/12 10:57:26;;;;;;;2.00;1.10;;;;;;;;;;105300;1253;65106;-64
2023/02/12 10:59:54;;;;;;;1.00;0.80;;;;;;;;;;105365;1253;65371;-64
2023/02/12 11:02:23;;;;;;;1.40;0.90;;;;;;;;;;105436;1257;65397;-61
2023/02/12 11:04:51;;;;;;;1.00;0.70;;;;;;;;;;105316;1253;64885;-63
2023/02/12 11:07:18;;;;;;;0.90;0.90;;;;;;;;;;105165;1260;64930;-62
2023/02/12 11:09:45;;;;;;;0.80;0.60;;;;;;;;;;105141;1253;65532;-62
2023/02/12 11:12:17;;;;;;;1.30;0.70;;;;;;;;;;105243;1250;66530;-62
2023/02/12 11:14:48;;;;;;;0.60;0.60;;;;;;;;;;105428;1251;66144;-69
2023/02/12 11:17:19;;;;;;;1.80;0.70;;;;;;;;;;105546;1248;65986;-63
2023/02/12 11:19:48;;;;;;;0.70;0.70;;;;;;;;;;105469;1253;65484;-62
2023/02/12 11:22:17;;;;;;;1.00;0.50;;;;;;;;;;105127;1260;65538;-62
2023/02/12 11:24:45;;;;;;;1.40;0.80;;;;;;;;;;105367;1253;65230;-63
2023/02/12 11:27:15;;;;;;;1.70;1.20;;;;;;;;;;105291;1262;65335;-63
2023/02/12 11:29:43;;;;;;;2.20;0.90;;;;;;;;;;105152;1248;65464;-62
2023/02/12 11:32:14;;;;;;;3.60;1.50;;;;;;;;;;105419;1253;65136;-64
2023/02/12 11:34:41;;;;;;;2.00;0.90;;;;;;;;;;105546;1260;65472;-61
2023/02/12 11:37:21;;;;;;;1.10;0.70;;;;;;;;;;105402;1253;65851;-62
2023/02/12 11:39:48;;;;;;;1.30;0.90;;;;;;;;;;105169;1260;65240;-61
2023/02/12 11:42:22;;;;;;;2.20;0.80;;;;;;;;;;105865;1251;65218;-63
2023/02/12 11:44:56;;;;;;;0.90;0.60;;;;;;;;;;106062;1251;65051;-63
2023/02/12 11:47:24;;;;;;;1.50;0.80;;;;;;;;;;105738;1247;65320;-64
2023/02/12 11:49:54;;;;;;;1.20;0.80;;;;;;;;;;105259;1253;64971;-70
2023/02/12 11:52:22;;;;;;;0.60;0.50;;;;;;;;;;105330;1253;64719;-70
2023/02/12 11:54:49;;;;;;;0.70;0.40;;;;;;;;;;105127;1254;64608;-70
2023/02/12 11:57:33;;;;;;;1.40;0.70;;;;;;;;;;105470;1254;65217;-67
2023/02/12 12:00:01;;;;;;;0.70;0.60;;;;;;;;;;105375;1252;65004;-73
2023/02/12 12:02:32;;;;;;;1.20;0.50;;;;;;;;;;104948;1254;65285;-68
2023/02/12 12:05:11;;;;;;;0.70;0.70;;;;;;;;;;105394;1248;64977;-67
2023/02/12 12:07:38;;;;;;;2.40;0.60;;;;;;;;;;105250;1254;64885;-66
2023/02/12 12:10:17;;;;;;;0.90;0.50;;;;;;;;;;104885;1254;64369;-68
2023/02/12 12:12:44;;;;;;;0.90;0.70;;;;;;;;;;105210;1253;64399;-62
2023/02/12 12:21:12;;;;;;;0.60;0.60;;;;;;;;;;105278;1247;64055;-65
2023/02/12 12:23:41;;;;;;;1.10;0.60;;;;;;;;;;105451;1252;64752;-69
2023/02/12 12:26:27;;;;;;;1.80;0.80;;;;;;;;;;104885;1254;64838;-67
2023/02/12 12:29:04;;;;;;;0.70;0.60;;;;;;;;;;105054;1248;64003;-69
2023/02/12 12:31:38;;;;;;;1.00;0.60;;;;;;;;;;105311;1256;64274;-68
2023/02/12 12:34:18;;;;;;;0.90;0.40;;;;;;;;;;105495;1248;63886;-69
2023/02/12 12:37:04;;;;;;;0.60;0.50;;;;;;;;;;105184;1253;63985;-65
2023/02/12 12:39:37;;;;;;;0.90;0.50;;;;;;;;;;105198;1254;63936;-63
2023/02/12 12:42:16;;;;;;;0.50;0.40;;;;;;;;;;105084;1253;63916;-64
2023/02/12 12:45:03;;;;;;;0.70;0.60;;;;;;;;;;105287;1250;64012;-68
2023/02/12 12:47:31;;;;;;;0.70;0.50;;;;;;;;;;105248;1254;63841;-67
2023/02/12 12:50:16;;;;;;;1.80;0.70;;;;;;;;;;105240;1248;63851;-67
2023/02/12 12:52:43;;;;;;;0.40;0.40;;;;;;;;;;105343;1253;64918;-69
2023/02/12 12:55:09;;;;;;;1.40;0.40;;;;;;;;;;105445;1251;63938;-67
2023/02/12 12:57:43;;;;;;;1.30;0.60;;;;;;;;;;105778;1247;63947;-68
2023/02/12 13:00:19;;;;;;;1.00;0.60;;;;;;;;;;105699;1252;63921;-67
2023/02/12 13:02:47;;;;;;;0.80;0.50;;;;;;;;;;105193;1252;64460;-67
2023/02/12 13:05:23;;;;;;;0.90;0.60;;;;;;;;;;105266;1250;64049;-67
2023/02/12 13:08:09;;;;;;;1.50;0.70;;;;;;;;;;105167;1253;63899;-68
2023/02/12 13:10:52;;;;;;;0.90;0.50;;;;;;;;;;105193;1253;63969;-66
2023/02/12 13:13:19;;;;;;;0.60;0.60;;;;;;;;;;105935;1247;63876;-67
2023/02/12 13:15:48;;;;;;;0.50;0.50;;;;;;;;;;105357;1248;64066;-66
2023/02/12 13:18:33;;;;;;;1.60;0.90;;;;;;;;;;105704;1248;63915;-69
2023/02/12 13:21:06;;;;;;;0.50;0.50;;;;;;;;;;105292;1252;63980;-70
2023/02/12 13:23:45;;;;;;;1.00;0.60;;;;;;;;;;105482;1250;64439;-69
2023/02/12 13:26:30;;;;;;;1.40;0.70;;;;;;;;;;105343;1249;63977;-69
2023/02/12 13:29:05;;;;;;;2.20;1.40;;;;;;;;;;105244;1253;63976;-70
2023/02/12 13:31:32;;;;;;;1.30;0.60;;;;;;;;;;105252;1252;63957;-68
2023/02/12 13:34:04;;;;;;;1.60;0.80;;;;;;;;;;105296;1253;63963;-68
2023/02/12 13:36:34;;;;;;;3.50;0.60;;;;;;;;;;105150;1254;63976;-68
2023/02/12 13:39:07;;;;;;;1.00;0.80;;;;;;;;;;104833;1256;63882;-69
2023/02/12 13:41:34;;;;;;;0.80;0.60;;;;;;;;;;105493;1248;64040;-68
2023/02/12 13:44:06;;;;;;;1.50;0.90;;;;;;;;;;105705;1253;63906;-69
2023/02/12 13:46:39;;;;;;;0.80;0.60;;;;;;;;;;104940;1254;63961;-67
2023/02/12 13:49:17;;;;;;;0.50;0.50;;;;;;;;;;105329;1248;63925;-69
2023/02/12 13:51:47;;;;;;;1.10;0.60;;;;;;;;;;105368;1248;63995;-69
2023/02/12 13:54:14;;;;;;;;;;;;;;;;;;105428;1248;64224;-71
2023/02/12 13:56:54;;;;;;;0.60;0.40;;;;;;;;;;105696;1250;63851;-68
2023/02/12 13:59:31;;;;;;;4.10;0.60;;;;;;;;;;105304;1250;63785;-66
2023/02/12 14:02:02;;;;;;;1.10;0.80;;;;;;;;;;105352;1248;63922;-67
2023/02/12 14:04:29;;;;;;;1.50;0.90;;;;;;;;;;105477;1251;63554;-67
2023/02/12 14:06:59;;;;;;;1.40;1.00;;;;;;;;;;105534;1248;63926;-67
2023/02/12 14:09:28;;;;;;;2.20;1.10;;;;;;;;;;105226;1248;63846;-67
2023/02/12 14:11:55;;;;;;;1.40;0.80;;;;;;;;;;105151;1249;63941;-68
2023/02/12 14:14:27;;;;;;;1.50;0.90;;;;;;;;;;105345;1249;63813;-69
2023/02/12 14:16:54;;;;;;;1.70;0.90;;;;;;;;;;104904;1254;63339;-67
2023/02/12 14:19:37;;;;;;;2.10;0.80;;;;;;;;;;105216;1248;63919;-68
2023/02/12 14:22:11;;;;;;;0.80;0.70;;;;;;;;;;105242;1254;63867;-68
2023/02/12 14:24:45;;;;;;;2.00;1.00;;;;;;;;;;105322;1248;63913;-67
2023/02/12 14:27:24;;;;;;;2.20;0.90;;;;;;;;;;104903;1248;63852;-67
2023/02/12 14:30:03;;;;;;;1.40;0.80;;;;;;;;;;105463;1250;63775;-68
2023/02/12 14:32:43;;;;;;;1.10;0.80;;;;;;;;;;105411;1264;63836;-69
2023/02/12 14:35:40;;;;;;;0.70;0.60;;;;;;;;;;105375;1248;63835;-68
2023/02/12 14:38:13;;;;;;;1.20;0.80;;;;;;;;;;105100;1252;64035;-68
2023/02/12 14:40:43;;;;;;;1.00;0.80;;;;;;;;;;105353;1248;63816;-69
2023/02/12 14:43:22;;;;;;;1.40;1.00;;;;;;;;;;105221;1250;63852;-69
2023/02/12 14:45:49;;;;;;;0.90;0.80;;;;;;;;;;105357;1253;63839;-68
2023/02/12 14:48:35;;;;;;;1.10;0.80;;;;;;;;;;105346;1252;63854;-70
2023/02/12 14:51:02;;;;;;;1.40;0.80;;;;;;;;;;105120;1251;63704;-69
2023/02/12 14:53:30;;;;;;;1.00;0.90;;;;;;;;;;105269;1250;63559;-70
2023/02/12 14:55:57;;;;;;;;;;;;;;;;;;105392;1253;62984;-70
2023/02/12 14:58:25;;;;;;;1.30;1.00;;;;;;;;;;105424;1252;63414;-69
2023/02/12 15:00:53;;;;;;;1.10;0.90;;;;;;;;;;105189;1248;63234;-70
2023/02/12 15:03:24;;;;;;;1.80;1.30;;;;;;;;;;105397;1253;63562;-69
2023/02/12 15:05:51;;;;;;;3.30;1.10;;;;;;;;;;105142;1253;63102;-68
2023/02/12 15:08:18;;;;;;;2.80;2.00;;;;;;;;;;105364;1250;63158;-69
2023/02/12 15:10:46;;;;;;;1.90;1.10;;;;;;;;;;105238;1248;63380;-68
2023/02/12 15:13:14;;;;;;;;;;;;;;;;;;105320;1257;63162;-69
2023/02/12 15:15:46;;;;;;;2.20;1.10;;;;;;;;;;105199;1251;63574;-71
2023/02/12 15:18:22;;;;;;;1.70;0.90;;;;;;;;;;105308;1253;62904;-69
2023/02/12 15:20:54;;;;;;;2.80;1.20;;;;;;;;;;105395;1252;62895;-67
2023/02/12 15:23:39;;;;;;;1.50;1.10;;;;;;;;;;105396;1253;63301;-65
2023/02/12 15:26:19;;;;;;;2.70;1.30;;;;;;;;;;105189;1253;62823;-67
2023/02/12 15:28:47;;;;;;;1.60;1.10;;;;;;;;;;105452;1253;62963;-69
2023/02/12 15:31:14;;;;;;;11.10;2.20;;;;;;;;;;106380;1250;62911;-69
2023/02/12 15:33:44;;;;;;;2.50;1.40;;;;;;;;;;105508;1248;61435;-69
2023/02/12 15:36:11;;;;;;;2.90;1.90;;;;;;;;;;105157;1253;63256;-67
2023/02/12 15:38:40;;;;;;;2.90;1.80;;;;;;;;;;104935;1251;62782;-70
2023/02/12 15:41:07;;;;;;;3.50;1.60;;;;;;;;;;105024;1252;63211;-68
2023/02/12 15:43:38;;;;;;;2.60;1.80;;;;;;;;;;105542;1253;62834;-68
2023/02/12 15:46:06;;;;;;;2.90;1.80;;;;;;;;;;105542;1248;63389;-66
2023/02/12 15:48:34;;;;;;;3.20;1.60;;;;;;;;;;105275;1253;62897;-68
2023/02/12 15:51:05;;;;;;;2.30;1.90;;;;;;;;;;104965;1250;62870;-65
2023/02/12 15:53:32;;;;;;;3.30;1.50;;;;;;;;;;105192;1250;63045;-65
2023/02/12 15:55:59;;;;;;;2.60;2.00;;;;;;;;;;105344;1257;62726;-65
2023/02/12 15:58:27;;;;;;;2.20;1.80;;;;;;;;;;105553;1248;62965;-65
2023/02/12 16:00:58;;;;;;;3.40;2.10;;;;;;;;;;105242;1271;63120;-65
2023/02/12 16:03:30;;;;;;;5.30;2.70;;;;;;;;;;105537;1257;61866;-66
2023/02/12 16:06:05;;;;;;;7.70;3.30;;;;;;;;;;105342;1256;62777;-66
2023/02/12 16:08:34;;;;;;;8.00;3.80;;;;;;;;;;104912;1247;62940;-65
2023/02/12 16:11:12;;;;;;;;;;;;;;;;;;105711;1248;62862;-67
2023/02/12 16:13:47;;;;;;;7.40;3.00;;;;;;;;;;105293;1253;63621;-66
2023/02/12 16:16:16;;;;;;;5.80;3.70;;;;;;;;;;104917;1254;63912;-66
2023/02/12 16:18:45;;;;;;;;;;;;;;;;;;105324;1248;63067;-67
2023/02/12 16:21:12;;;;;;;5.10;2.70;;;;;;;;;;105150;1253;63361;-68
2023/02/12 16:23:43;;;;;;;5.20;3.20;;;;;;;;;;105086;1260;62741;-67
2023/02/12 16:26:15;;;;;;;6.10;3.10;;;;;;;;;;105182;1252;63263;-67
2023/02/12 16:28:44;;;;;;;6.90;3.30;;;;;;;;;;105361;1260;62198;-65
2023/02/12 16:31:11;;;;;;;6.70;3.70;;;;;;;;;;105302;1252;62825;-67
2023/02/12 16:33:38;;;;;;;5.90;3.20;;;;;;;;;;105140;1258;62728;-65
2023/02/12 16:36:07;;;;;;;5.60;3.30;;;;;;;;;;105175;1253;62753;-66
2023/02/12 16:38:40;;;;;;;5.70;3.40;;;;;;;;;;105207;1248;62820;-65
2023/02/12 16:41:16;;;;;;;5.00;3.40;;;;;;;;;;105154;1271;62210;-65
2023/02/12 16:43:44;;;;;;;4.80;3.30;;;;;;;;;;105359;1247;62937;-67
2023/02/12 16:46:11;;;;;;;4.90;3.10;;;;;;;;;;105297;1248;62858;-66
2023/02/12 16:48:42;;;;;;;4.20;3.40;;;;;;;;;;104859;1262;62782;-67
2023/02/12 16:51:26;;;;;;;5.70;4.30;;;;;;;;;;105081;1253;62782;-65
2023/02/12 16:53:56;;;;;;;7.10;4.40;;;;;;;;;;105259;1253;61887;-65
2023/02/12 16:56:27;;;;;;;5.50;4.20;;;;;;;;;;105356;1249;63471;-65
2023/02/12 16:58:56;;;;;;;5.90;3.80;;;;;;;;;;105161;1253;62888;-64
2023/02/12 17:01:24;;;;;;;4.60;3.60;;;;;;;;;;105207;1253;62751;-66
2023/02/12 17:03:52;;;;;;;5.10;3.50;;;;;;;;;;105215;1264;62840;-66
2023/02/12 17:06:19;;;;;;;;;;;;;;;;;;105233;1253;62846;-66
2023/02/12 17:08:46;;;;;;;6.10;4.70;;;;;;;;;;105097;1248;63062;-66
2023/02/12 17:11:16;;;;;;;8.10;5.30;;;;;;;;;;105026;1253;64714;-67
2023/02/12 17:13:47;;;;;;;6.30;4.30;;;;;;;;;;105320;1248;63100;-67
2023/02/12 17:16:14;;;;;;;5.40;3.70;;;;;;;;;;105324;1250;62772;-68
2023/02/12 17:18:56;;;;;;;6.40;3.90;;;;;;;;;;105339;1253;62153;-68
2023/02/12 17:21:24;;;;;;;4.50;2.50;;;;;;;;;;105347;1251;62919;-67
2023/02/12 17:23:54;;;;;;;6.30;3.70;;;;;;;;;;105286;1251;62936;-68
2023/02/12 17:26:21;;;;;;;5.80;3.70;;;;;;;;;;105388;1252;62773;-68
2023/02/12 17:28:48;;;;;;;5.50;3.60;;;;;;;;;;105100;1250;62853;-67
2023/02/12 17:31:14;;;;;;;5.30;3.50;;;;;;;;;;105505;1253;62827;-68
2023/02/12 17:35:14;;;;;;;5.60;3.60;;;;;;;;;;101991;1290;601151;-66
2023/02/12 17:37:42;;;;;;;5.40;3.10;;;;;;;;;;104277;1262;61372;-67
2023/02/12 17:40:15;;;;;;;4.70;2.90;;;;;;;;;;104236;1263;61386;-66
2023/02/12 17:42:43;;;;;;;6.90;3.10;;;;;;;;;;104079;1264;61178;-68
2023/02/12 17:45:12;;;;;;;5.10;3.20;;;;;;;;;;104307;1262;61382;-69
2023/02/12 17:47:40;;;;;;;7.30;3.10;;;;;;;;;;104285;1262;208837;-75
2023/02/12 17:50:09;;;;;;;3.70;2.50;;;;;;;;;;104060;1259;61366;-65